Time;durP1;ratioP1;P1;durP2;ratioP2;P2;SDS_P1;SDS_P2;PMS_P1;PMS_P2;Temp;Humidity;BMP_temperature;BMP_pressure;BME280_temperature;BME280_humidity;BME280_pressure;Samples;Min_cycle;Max_cycle;Signal;HPM_P1;HPM_P2
2021/01/08 00:02:01;;;;;;;9.25;8.30;;;6.80;99.90;;;;;;4993920;28;20225;-89
2021/01/08 00:04:27;;;;;;;10.25;9.18;;;6.80;99.90;;;;;;4994054;28;20197;-89
2021/01/08 00:06:58;;;;;;;11.55;10.35;;;6.70;99.90;;;;;;4994038;28;20208;-88
2021/01/08 00:09:24;;;;;;;8.27;7.50;;;6.80;99.90;;;;;;4996583;28;20200;-89
2021/01/08 00:11:54;;;;;;;10.15;9.07;;;6.90;99.90;;;;;;4998087;28;20204;-89
2021/01/08 00:14:20;;;;;;;10.13;9.13;;;7.00;99.90;;;;;;4997672;28;20285;-88
2021/01/08 00:16:47;;;;;;;10.05;9.15;;;6.90;99.90;;;;;;4997653;28;20251;-89
2021/01/08 00:19:13;;;;;;;9.48;8.57;;;7.00;99.90;;;;;;4997985;28;20204;-89
2021/01/08 00:21:43;;;;;;;10.40;9.30;;;6.90;99.90;;;;;;4997731;28;20235;-88
2021/01/08 00:24:11;;;;;;;9.55;8.55;;;6.90;99.90;;;;;;4997524;28;20205;-87
2021/01/08 00:26:37;;;;;;;9.02;8.20;;;7.00;99.90;;;;;;4997689;28;20644;-89
2021/01/08 00:29:04;;;;;;;12.95;9.32;;;7.00;99.90;;;;;;4997772;28;20193;-89
2021/01/08 00:31:37;;;;;;;11.00;9.90;;;7.10;99.90;;;;;;4997620;28;20200;-90
2021/01/08 00:34:05;;;;;;;9.77;8.88;;;7.00;99.90;;;;;;4997555;28;20201;-88
2021/01/08 00:36:31;;;;;;;8.88;7.97;;;7.00;99.90;;;;;;4997304;28;20193;-87
2021/01/08 00:38:57;;;;;;;9.80;8.80;;;7.00;99.90;;;;;;4997226;28;20193;-89
2021/01/08 00:41:34;;;;;;;10.10;9.15;;;7.10;99.90;;;;;;4997471;28;20197;-88
2021/01/08 00:44:00;;;;;;;10.95;9.85;;;7.10;99.90;;;;;;4997306;28;20225;-89
2021/01/08 00:46:31;;;;;;;8.63;7.82;;;7.10;99.90;;;;;;4996989;28;20278;-88
2021/01/08 00:48:57;;;;;;;9.93;8.93;;;7.10;99.90;;;;;;4997600;28;20270;-85
2021/01/08 00:51:24;;;;;;;9.52;8.57;;;7.10;99.90;;;;;;4997332;28;20220;-89
2021/01/08 00:53:50;;;;;;;8.30;7.50;;;7.10;99.90;;;;;;4997175;28;20197;-89
2021/01/08 00:56:18;;;;;;;8.07;7.30;;;7.10;99.90;;;;;;4997137;28;20220;-88
2021/01/08 00:58:45;;;;;;;9.20;8.20;;;7.10;99.90;;;;;;4997336;28;20197;-89
2021/01/08 01:01:11;;;;;;;10.18;8.13;;;7.20;99.90;;;;;;4996877;28;20208;-89
2021/01/08 01:03:38;;;;;;;9.63;8.65;;;7.20;99.90;;;;;;4996641;28;20221;-88
2021/01/08 01:06:04;;;;;;;10.85;9.10;;;7.20;99.90;;;;;;4996925;28;20201;-87
2021/01/08 01:08:31;;;;;;;6.88;6.28;;;7.20;99.90;;;;;;4996922;28;20197;-85
2021/01/08 01:10:57;;;;;;;9.13;8.13;;;7.20;99.90;;;;;;4996779;28;20205;-89
2021/01/08 01:13:24;;;;;;;8.35;7.50;;;7.30;99.90;;;;;;4996968;28;20207;-89
2021/01/08 01:15:51;;;;;;;7.80;7.10;;;7.30;99.90;;;;;;4996823;28;20193;-88
2021/01/08 01:18:17;;;;;;;8.57;7.78;;;7.30;99.90;;;;;;4996717;28;20657;-88
2021/01/08 01:20:44;;;;;;;8.90;8.10;;;7.30;99.90;;;;;;4995639;28;20200;-88
2021/01/08 01:23:10;;;;;;;7.90;7.10;;;7.30;99.90;;;;;;4996651;28;20275;-84
2021/01/08 01:25:36;;;;;;;7.38;6.53;;;7.30;99.90;;;;;;4996739;28;20539;-89
2021/01/08 01:28:03;;;;;;;8.80;7.90;;;7.30;99.90;;;;;;4996959;28;20204;-87
2021/01/08 01:30:31;;;;;;;10.50;7.43;;;7.20;99.90;;;;;;4996549;28;20200;-87
2021/01/08 01:32:58;;;;;;;7.93;6.97;;;7.30;99.90;;;;;;4996286;28;20667;-88
2021/01/08 01:35:25;;;;;;;8.82;7.05;;;7.30;99.90;;;;;;4996436;28;20199;-89
2021/01/08 01:37:51;;;;;;;7.40;6.65;;;7.40;99.90;;;;;;4996361;28;20657;-88
2021/01/08 01:40:18;;;;;;;7.50;6.80;;;7.40;99.90;;;;;;4996275;28;20201;-89
2021/01/08 01:42:44;;;;;;;7.47;6.78;;;7.40;99.90;;;;;;4996975;28;20227;-88
2021/01/08 01:45:11;;;;;;;8.43;7.15;;;7.40;99.90;;;;;;4995954;28;20235;-85
2021/01/08 01:47:38;;;;;;;6.80;6.18;;;7.40;99.90;;;;;;4996319;28;20205;-88
2021/01/08 01:50:07;;;;;;;7.25;6.47;;;7.40;99.90;;;;;;4995794;28;20201;-89
2021/01/08 01:52:35;;;;;;;7.38;6.43;;;7.40;99.90;;;;;;4996070;28;20224;-87
2021/01/08 01:55:02;;;;;;;7.88;7.15;;;7.40;99.90;;;;;;4996260;28;20192;-87
2021/01/08 01:57:28;;;;;;;6.47;5.88;;;7.40;99.90;;;;;;4996644;28;20205;-89
2021/01/08 01:59:54;;;;;;;6.47;5.53;;;7.50;99.90;;;;;;4995729;28;20196;-89
2021/01/08 02:02:25;;;;;;;6.20;5.65;;;7.30;99.90;;;;;;4995537;28;20229;-84
2021/01/08 02:04:54;;;;;;;5.20;4.78;;;7.30;99.90;;;;;;4996087;28;20193;-88
2021/01/08 02:07:23;;;;;;;5.65;5.15;;;7.20;99.90;;;;;;4995885;28;20208;-81
2021/01/08 02:09:51;;;;;;;6.28;5.68;;;7.20;99.90;;;;;;4995726;28;20263;-87
2021/01/08 02:12:19;;;;;;;6.30;5.70;;;7.20;99.90;;;;;;4995605;28;20201;-89
2021/01/08 02:14:46;;;;;;;5.85;5.25;;;7.30;99.90;;;;;;4995579;28;20208;-88
2021/01/08 02:17:16;;;;;;;5.63;5.13;;;7.30;99.90;;;;;;4996104;28;20259;-88
2021/01/08 02:19:47;;;;;;;5.68;5.03;;;7.30;99.90;;;;;;4995628;28;20205;-88
2021/01/08 02:22:17;;;;;;;7.38;5.65;;;7.30;99.90;;;;;;4995265;28;20264;-87
2021/01/08 02:24:47;;;;;;;6.20;5.60;;;7.30;99.90;;;;;;4995351;28;20181;-88
2021/01/08 02:27:14;;;;;;;6.55;5.93;;;7.40;99.90;;;;;;4995409;28;20219;-88
2021/01/08 02:29:41;;;;;;;5.90;5.30;;;7.60;99.90;;;;;;4995385;28;20204;-85
2021/01/08 02:32:08;;;;;;;7.63;6.68;;;7.50;99.90;;;;;;4995279;28;20200;-88
2021/01/08 02:34:35;;;;;;;6.05;5.45;;;7.40;99.90;;;;;;4995248;28;20201;-87
2021/01/08 02:37:02;;;;;;;7.00;6.18;;;7.60;99.90;;;;;;4995289;28;20196;-87
2021/01/08 02:39:29;;;;;;;5.40;4.90;;;7.40;99.90;;;;;;4994980;28;20211;-88
2021/01/08 02:41:56;;;;;;;6.05;5.45;;;7.40;99.90;;;;;;4994830;28;20205;-86
2021/01/08 02:44:23;;;;;;;5.72;5.05;;;7.40;99.90;;;;;;4995007;28;20197;-87
2021/01/08 02:46:50;;;;;;;7.30;5.05;;;7.50;99.90;;;;;;4994891;28;20228;-87
2021/01/08 02:49:16;;;;;;;6.13;5.53;;;7.50;99.90;;;;;;4995149;28;20247;-88
2021/01/08 02:51:43;;;;;;;6.55;5.50;;;7.50;99.90;;;;;;4995112;28;20213;-88
2021/01/08 02:54:10;;;;;;;5.60;5.10;;;7.50;99.90;;;;;;4994810;28;20208;-82
2021/01/08 02:56:40;;;;;;;6.68;5.57;;;7.60;99.90;;;;;;4994720;28;20212;-86
2021/01/08 02:59:08;;;;;;;6.20;4.90;;;7.40;99.90;;;;;;4994627;28;20205;-87
2021/01/08 03:01:36;;;;;;;5.28;4.65;;;7.40;99.90;;;;;;4994801;28;20661;-87
2021/01/08 03:04:02;;;;;;;7.00;5.28;;;7.40;99.90;;;;;;4994577;28;20631;-87
2021/01/08 03:06:30;;;;;;;5.32;4.82;;;7.40;99.90;;;;;;4994901;28;20205;-88
2021/01/08 03:08:57;;;;;;;6.22;5.63;;;7.50;99.90;;;;;;4994793;28;20223;-89
2021/01/08 03:11:23;;;;;;;7.30;5.63;;;7.30;99.90;;;;;;4994844;28;20203;-87
2021/01/08 03:13:50;;;;;;;6.88;4.97;;;7.40;99.90;;;;;;4994420;28;20205;-88
2021/01/08 03:16:18;;;;;;;7.03;6.20;;;7.30;99.90;;;;;;4994454;28;20197;-88
2021/01/08 03:18:45;;;;;;;6.43;5.82;;;7.50;99.90;;;;;;4994658;28;20193;-88
2021/01/08 03:21:11;;;;;;;5.95;4.90;;;7.50;99.90;;;;;;4994488;28;20600;-88
2021/01/08 03:23:37;;;;;;;5.50;4.95;;;7.50;99.90;;;;;;4994260;28;20925;-87
2021/01/08 03:26:04;;;;;;;5.00;4.55;;;7.50;99.90;;;;;;4994387;28;20197;-88
2021/01/08 03:28:30;;;;;;;5.13;4.72;;;7.50;99.90;;;;;;4994558;28;20246;-87
2021/01/08 03:30:56;;;;;;;5.05;4.55;;;7.50;99.90;;;;;;4994387;28;20193;-88
2021/01/08 03:33:22;;;;;;;6.30;4.88;;;7.40;99.90;;;;;;4994165;28;20200;-88
2021/01/08 03:35:49;;;;;;;5.60;5.10;;;7.50;99.90;;;;;;4994329;28;20686;-84
2021/01/08 03:38:16;;;;;;;5.97;5.30;;;7.40;99.90;;;;;;4994353;28;20200;-88
2021/01/08 03:40:42;;;;;;;6.00;4.95;;;7.40;99.90;;;;;;4994331;28;20197;-88
2021/01/08 03:43:08;;;;;;;4.65;4.22;;;7.30;99.90;;;;;;4993701;28;20220;-88
2021/01/08 03:45:35;;;;;;;5.90;4.75;;;7.40;99.90;;;;;;4993901;28;20236;-87
2021/01/08 03:48:01;;;;;;;5.68;4.70;;;7.40;99.90;;;;;;4994074;28;20193;-87
2021/01/08 03:50:27;;;;;;;7.07;5.40;;;7.30;99.90;;;;;;4994272;28;20255;-88
2021/01/08 03:52:54;;;;;;;5.03;4.53;;;7.30;99.90;;;;;;4993886;28;20224;-88
2021/01/08 03:55:21;;;;;;;5.50;5.00;;;7.10;99.90;;;;;;4994179;28;20198;-88
2021/01/08 03:57:47;;;;;;;7.38;5.28;;;7.10;99.90;;;;;;4994051;28;20200;-87
2021/01/08 04:00:14;;;;;;;8.20;5.40;;;7.20;99.90;;;;;;4993975;28;20672;-88
2021/01/08 04:02:40;;;;;;;4.93;4.43;;;7.20;99.90;;;;;;4993806;28;20221;-88
2021/01/08 04:05:08;;;;;;;8.73;5.80;;;7.30;99.90;;;;;;4994004;28;20288;-88
2021/01/08 04:07:34;;;;;;;5.78;5.28;;;7.30;99.90;;;;;;4993976;28;20193;-88
2021/01/08 04:10:01;;;;;;;6.53;5.60;;;7.30;99.90;;;;;;4994152;28;20200;-87
2021/01/08 04:12:27;;;;;;;7.35;6.35;;;7.20;99.90;;;;;;4993803;28;20201;-88
2021/01/08 04:14:54;;;;;;;6.05;5.25;;;7.30;99.90;;;;;;4993786;28;20667;-84
2021/01/08 04:17:20;;;;;;;6.70;5.32;;;7.20;99.90;;;;;;4993796;28;20224;-87
2021/01/08 04:19:46;;;;;;;6.07;5.35;;;7.20;99.90;;;;;;4993914;28;20661;-88
2021/01/08 04:22:13;;;;;;;5.75;4.95;;;7.30;99.90;;;;;;4993784;28;20217;-88
2021/01/08 04:24:39;;;;;;;6.40;4.57;;;7.30;99.90;;;;;;4993853;28;20613;-87
2021/01/08 04:27:06;;;;;;;7.43;5.60;;;7.40;99.90;;;;;;4993816;28;20539;-87
2021/01/08 04:29:32;;;;;;;5.70;5.20;;;7.40;99.90;;;;;;4994009;28;20540;-87
2021/01/08 04:31:58;;;;;;;5.07;4.68;;;7.50;99.90;;;;;;4993794;28;20201;-88
2021/01/08 04:34:25;;;;;;;5.95;5.35;;;7.50;99.90;;;;;;4993827;28;20201;-85
2021/01/08 04:36:51;;;;;;;7.03;5.55;;;7.50;99.90;;;;;;4993650;28;20197;-88
2021/01/08 04:39:17;;;;;;;6.28;5.68;;;7.50;99.90;;;;;;4993813;28;20200;-88
2021/01/08 04:41:44;;;;;;;5.93;5.43;;;7.50;99.90;;;;;;4993760;28;20193;-87
2021/01/08 04:44:11;;;;;;;6.38;5.13;;;7.50;99.90;;;;;;4993524;28;20225;-86
2021/01/08 04:46:38;;;;;;;5.85;5.30;;;7.50;99.90;;;;;;4993357;28;20251;-88
2021/01/08 04:49:07;;;;;;;5.72;5.22;;;7.50;99.90;;;;;;4993757;28;20197;-88
2021/01/08 04:51:34;;;;;;;5.30;4.80;;;7.40;99.90;;;;;;4993602;28;20217;-87
2021/01/08 04:54:01;;;;;;;5.15;4.72;;;7.50;99.90;;;;;;4993453;28;20201;-88
2021/01/08 04:56:31;;;;;;;5.22;4.72;;;7.40;99.90;;;;;;4996082;28;20205;-88
2021/01/08 04:58:57;;;;;;;5.03;4.50;;;7.40;99.90;;;;;;4996852;28;20197;-88
2021/01/08 05:01:24;;;;;;;5.32;4.82;;;7.30;99.90;;;;;;4997224;28;20219;-88
2021/01/08 05:03:51;;;;;;;6.72;5.78;;;7.30;99.90;;;;;;4996758;28;20707;-87
2021/01/08 05:06:18;;;;;;;5.07;4.68;;;7.30;99.90;;;;;;4996768;28;20204;-87
2021/01/08 05:08:44;;;;;;;5.05;4.50;;;7.30;99.90;;;;;;4997549;28;20209;-87
2021/01/08 05:11:21;;;;;;;7.03;5.20;;;7.20;99.90;;;;;;4996682;28;20664;-88
2021/01/08 05:13:53;;;;;;;5.00;4.53;;;7.20;99.90;;;;;;4996934;28;20558;-86
2021/01/08 05:16:20;;;;;;;7.75;5.20;;;7.20;99.90;;;;;;4997147;28;20212;-87
2021/01/08 05:18:49;;;;;;;5.57;5.07;;;7.10;99.90;;;;;;4996603;28;20652;-88
2021/01/08 05:21:16;;;;;;;6.95;5.28;;;7.10;99.90;;;;;;4996492;28;20213;-89
2021/01/08 05:23:42;;;;;;;5.05;4.55;;;7.10;99.90;;;;;;4996327;28;20221;-88
2021/01/08 05:26:12;;;;;;;5.65;4.60;;;7.20;99.90;;;;;;4997071;28;20209;-85
2021/01/08 05:28:38;;;;;;;6.90;5.55;;;7.20;99.90;;;;;;4996685;28;20193;-88
2021/01/08 05:31:09;;;;;;;5.57;5.07;;;7.20;99.90;;;;;;4996628;28;20196;-87
2021/01/08 05:33:36;;;;;;;5.60;5.03;;;7.30;99.90;;;;;;4996438;28;20193;-88
2021/01/08 05:36:04;;;;;;;8.23;4.55;;;7.30;99.90;;;;;;4996198;28;20197;-88
2021/01/08 05:38:33;;;;;;;5.53;5.03;;;7.30;99.90;;;;;;4996163;28;20197;-86
2021/01/08 05:41:03;;;;;;;5.80;5.28;;;7.30;99.90;;;;;;4996220;28;20201;-86
2021/01/08 05:43:30;;;;;;;5.28;4.35;;;7.20;99.90;;;;;;4996017;28;20688;-87
2021/01/08 05:46:14;;;;;;;5.10;4.65;;;7.20;99.90;;;;;;4995816;28;20221;-88
2021/01/08 05:48:43;;;;;;;6.65;4.90;;;7.30;99.90;;;;;;4996162;28;20219;-87
2021/01/08 05:51:15;;;;;;;5.50;4.95;;;7.30;99.90;;;;;;4995929;28;20224;-88
2021/01/08 05:53:43;;;;;;;6.03;5.43;;;7.20;99.90;;;;;;4995941;28;20200;-88
2021/01/08 05:56:16;;;;;;;7.45;5.47;;;7.20;99.90;;;;;;4996057;28;20197;-84
2021/01/08 05:58:43;;;;;;;5.53;4.85;;;7.20;99.90;;;;;;4995929;28;20205;-87
2021/01/08 06:01:10;;;;;;;7.03;5.70;;;7.30;99.90;;;;;;4996060;28;20197;-86
2021/01/08 06:03:37;;;;;;;6.50;5.80;;;7.20;99.90;;;;;;4995583;28;20688;-85
2021/01/08 06:06:04;;;;;;;5.30;4.80;;;7.20;99.90;;;;;;4995184;28;20567;-87
2021/01/08 06:08:32;;;;;;;6.13;5.53;;;7.30;99.90;;;;;;4995871;28;20205;-81
2021/01/08 06:11:00;;;;;;;5.75;5.22;;;7.30;99.90;;;;;;4995627;28;20209;-86
2021/01/08 06:13:30;;;;;;;9.40;4.25;;;7.30;99.90;;;;;;4995550;28;20197;-87
2021/01/08 06:15:57;;;;;;;5.63;5.03;;;7.30;99.90;;;;;;4995693;28;20197;-88
2021/01/08 06:18:25;;;;;;;4.93;4.53;;;7.20;99.90;;;;;;4995417;28;20216;-88
2021/01/08 06:20:53;;;;;;;6.47;5.03;;;7.20;99.90;;;;;;4995722;28;20193;-87
2021/01/08 06:23:39;;;;;;;5.00;4.45;;;7.20;99.90;;;;;;4995474;28;20225;-87
2021/01/08 06:26:08;;;;;;;7.85;4.95;;;7.10;99.90;;;;;;4995493;28;20233;-88
2021/01/08 06:28:37;;;;;;;6.90;4.20;;;7.00;99.90;;;;;;4995509;28;20247;-87
2021/01/08 06:31:25;;;;;;;5.88;4.90;;;7.10;99.90;;;;;;4995569;28;20227;-87
2021/01/08 06:33:53;;;;;;;3.72;3.42;;;7.00;99.90;;;;;;4995322;28;20201;-86
2021/01/08 06:36:21;;;;;;;5.50;4.63;;;7.00;99.90;;;;;;4995340;28;20197;-83
2021/01/08 06:38:51;;;;;;;4.30;3.90;;;7.00;99.90;;;;;;4995235;28;20541;-88
2021/01/08 06:41:18;;;;;;;5.35;4.60;;;6.90;99.90;;;;;;4995047;28;20185;-86
2021/01/08 06:43:51;;;;;;;5.25;4.18;;;6.90;99.90;;;;;;4995127;28;20275;-87
2021/01/08 06:46:29;;;;;;;4.65;4.25;;;6.90;99.90;;;;;;4994681;28;20272;-88
2021/01/08 06:48:56;;;;;;;5.25;4.53;;;7.00;99.90;;;;;;4995025;28;20276;-88
2021/01/08 06:51:28;;;;;;;4.95;4.20;;;7.00;99.90;;;;;;4994759;28;20217;-87
2021/01/08 06:54:00;;;;;;;5.13;3.80;;;6.90;99.90;;;;;;4995093;28;20231;-87
2021/01/08 06:56:31;;;;;;;5.30;3.78;;;6.90;99.90;;;;;;4994545;28;20208;-86
2021/01/08 06:58:58;;;;;;;7.03;4.68;;;6.80;99.90;;;;;;4994729;28;20197;-86
2021/01/08 07:01:47;;;;;;;8.40;4.90;;;6.90;99.90;;;;;;4994856;28;20200;-87
2021/01/08 07:04:14;;;;;;;11.88;6.78;;;6.90;99.90;;;;;;4994765;28;20236;-87
2021/01/08 07:06:41;;;;;;;5.50;5.00;;;7.10;99.90;;;;;;4995015;28;20292;-87
2021/01/08 07:09:08;;;;;;;7.78;4.50;;;7.00;99.90;;;;;;4994848;28;20197;-87
2021/01/08 07:11:37;;;;;;;6.60;4.45;;;7.00;99.90;;;;;;4994801;28;20223;-88
2021/01/08 07:14:08;;;;;;;4.93;4.43;;;7.00;99.90;;;;;;4994779;28;20209;-87
2021/01/08 07:16:40;;;;;;;4.13;3.72;;;7.00;99.90;;;;;;4994365;28;20196;-86
2021/01/08 07:19:09;;;;;;;4.75;4.30;;;7.00;99.90;;;;;;4993479;28;20227;-86
2021/01/08 07:21:40;;;;;;;4.65;3.80;;;7.10;99.90;;;;;;4993938;28;20221;-86
2021/01/08 07:24:11;;;;;;;4.47;4.05;;;7.10;99.90;;;;;;4994149;28;20232;-84
2021/01/08 07:26:37;;;;;;;4.78;4.25;;;7.00;99.90;;;;;;4994127;28;20649;-82
2021/01/08 07:29:06;;;;;;;5.05;4.55;;;6.90;99.90;;;;;;4994048;28;20687;-82
2021/01/08 07:31:34;;;;;;;6.40;5.18;;;7.00;99.90;;;;;;4994065;28;20208;-90
2021/01/08 07:34:02;;;;;;;4.97;4.57;;;7.00;99.90;;;;;;4994348;28;20196;-84
2021/01/08 07:36:29;;;;;;;5.43;4.65;;;7.00;99.90;;;;;;4994292;28;20197;-85
2021/01/08 07:38:56;;;;;;;5.65;4.63;;;7.00;99.90;;;;;;4994203;28;20200;-83
2021/01/08 07:41:37;;;;;;;6.57;4.25;;;7.00;99.90;;;;;;4989477;28;20205;-83
2021/01/08 07:44:20;;;;;;;5.68;4.78;;;7.00;99.90;;;;;;4991126;28;20221;-88
2021/01/08 07:46:47;;;;;;;4.72;3.65;;;7.00;99.90;;;;;;4977941;28;20233;-91
2021/01/08 07:49:26;;;;;;;3.85;3.47;;;7.00;99.90;;;;;;4991831;28;20201;-85
2021/01/08 07:51:52;;;;;;;4.35;3.95;;;7.00;99.90;;;;;;4993562;28;20240;-85
2021/01/08 07:54:55;;;;;;;5.32;4.55;;;7.00;99.90;;;;;;4993502;28;20197;-85
2021/01/08 07:57:22;;;;;;;4.70;4.07;;;7.00;99.90;;;;;;4982488;28;20201;-88
2021/01/08 07:59:48;;;;;;;4.78;4.13;;;7.00;99.90;;;;;;4974124;28;20559;-85
2021/01/08 08:02:14;;;;;;;6.20;5.20;;;7.00;99.90;;;;;;4974237;28;20229;-82
2021/01/08 08:04:42;;;;;;;5.82;3.72;;;7.00;99.90;;;;;;4974104;28;20229;-85
2021/01/08 08:07:11;;;;;;;5.85;5.03;;;7.10;99.90;;;;;;4974406;28;20201;-83
2021/01/08 08:09:38;;;;;;;6.95;4.95;;;7.00;99.90;;;;;;4974137;28;20648;-87
2021/01/08 08:12:10;;;;;;;5.10;4.60;;;7.00;99.90;;;;;;4973891;28;20193;-88
2021/01/08 08:14:37;;;;;;;4.63;4.10;;;7.00;99.90;;;;;;4974012;28;20563;-87
2021/01/08 08:17:04;;;;;;;5.45;4.95;;;7.00;99.90;;;;;;4973731;28;20201;-85
2021/01/08 08:19:33;;;;;;;6.40;4.88;;;7.00;99.90;;;;;;4973399;28;20655;-86
2021/01/08 08:21:59;;;;;;;5.55;4.95;;;7.00;99.90;;;;;;4973321;28;20751;-86
2021/01/08 08:24:27;;;;;;;6.80;5.32;;;7.00;99.90;;;;;;4973731;28;20287;-86
2021/01/08 08:26:54;;;;;;;5.88;5.28;;;7.00;99.90;;;;;;4974219;28;20197;-85
2021/01/08 08:29:22;;;;;;;5.88;4.38;;;7.00;99.90;;;;;;4974638;28;20604;-84
2021/01/08 08:31:50;;;;;;;5.22;4.72;;;7.00;99.90;;;;;;4977169;28;20201;-85
2021/01/08 08:34:27;;;;;;;5.32;4.65;;;7.10;99.90;;;;;;4977483;28;20202;-88
2021/01/08 08:36:53;;;;;;;6.20;4.97;;;7.00;99.90;;;;;;4977298;28;20196;-88
2021/01/08 08:39:20;;;;;;;5.57;4.97;;;7.10;99.90;;;;;;4977195;28;20205;-92
2021/01/08 08:41:48;;;;;;;4.88;4.38;;;7.10;99.90;;;;;;4977022;28;20194;-85
2021/01/08 08:44:15;;;;;;;6.93;5.15;;;7.10;99.90;;;;;;4976753;28;20228;-86
2021/01/08 08:46:48;;;;;;;7.85;5.05;;;7.00;99.90;;;;;;4977243;28;20226;-85
2021/01/08 08:49:16;;;;;;;6.80;4.68;;;7.00;99.90;;;;;;4977271;28;20687;-95
2021/01/08 08:51:44;;;;;;;5.10;4.43;;;7.00;99.90;;;;;;4980592;28;20221;-83
2021/01/08 08:54:10;;;;;;;6.15;5.20;;;7.10;99.90;;;;;;4981088;28;20683;-88
2021/01/08 08:56:40;;;;;;;5.97;4.93;;;7.20;99.90;;;;;;4979631;28;20209;-87
2021/01/08 08:59:06;;;;;;;9.30;4.45;;;7.20;99.90;;;;;;4989832;28;20193;-83
2021/01/08 09:01:40;;;;;;;6.53;5.47;;;7.20;99.90;;;;;;4987899;28;20197;-88
2021/01/08 09:04:06;;;;;;;5.88;5.10;;;7.20;99.90;;;;;;4996467;28;20692;-86
2021/01/08 09:06:37;;;;;;;6.95;5.75;;;7.10;99.90;;;;;;4996772;28;20287;-84
2021/01/08 09:09:17;;;;;;;6.95;5.50;;;7.10;99.90;;;;;;4996196;28;20220;-82
2021/01/08 09:11:59;;;;;;;5.68;5.18;;;7.20;99.90;;;;;;4996511;28;20196;-87
2021/01/08 09:14:29;;;;;;;5.38;4.70;;;7.10;99.90;;;;;;4996431;28;20255;-82
2021/01/08 09:17:02;;;;;;;6.60;5.57;;;7.10;99.90;;;;;;4996276;28;20652;-86
2021/01/08 09:19:35;;;;;;;6.25;4.95;;;7.00;99.90;;;;;;4996521;28;20189;-85
2021/01/08 09:22:05;;;;;;;5.85;4.50;;;7.00;99.90;;;;;;4995995;28;20236;-84
2021/01/08 09:24:33;;;;;;;5.18;3.95;;;7.00;99.90;;;;;;4996437;28;20208;-82
2021/01/08 09:27:00;;;;;;;4.18;3.72;;;6.90;99.90;;;;;;4996050;28;20208;-81
2021/01/08 09:29:28;;;;;;;5.22;3.78;;;7.00;99.90;;;;;;4995938;28;20283;-82
2021/01/08 09:31:56;;;;;;;5.28;4.78;;;7.00;99.90;;;;;;4980890;28;20596;-82
2021/01/08 09:34:23;;;;;;;7.00;4.22;;;7.10;99.90;;;;;;4976365;28;20208;-82
2021/01/08 09:36:52;;;;;;;4.97;4.57;;;7.10;99.90;;;;;;4976321;28;20190;-82
2021/01/08 09:39:20;;;;;;;4.25;3.80;;;7.20;99.90;;;;;;4976470;28;20205;-83
2021/01/08 09:41:55;;;;;;;4.70;3.95;;;7.20;99.90;;;;;;4975338;28;20197;-83
2021/01/08 09:44:30;;;;;;;6.40;4.43;;;7.40;99.90;;;;;;4976414;28;20229;-81
2021/01/08 09:46:57;;;;;;;6.00;5.32;;;7.40;99.90;;;;;;4976083;28;20240;-84
2021/01/08 09:49:24;;;;;;;6.28;4.57;;;7.40;99.90;;;;;;4976342;28;20551;-84
2021/01/08 09:52:00;;;;;;;3.90;3.50;;;7.30;99.90;;;;;;4976126;28;20224;-84
2021/01/08 09:54:43;;;;;;;5.20;4.28;;;7.30;99.90;;;;;;4976322;28;20201;-85
2021/01/08 09:57:09;;;;;;;5.82;4.82;;;7.30;99.90;;;;;;4988858;28;20208;-83
2021/01/08 09:59:36;;;;;;;6.78;4.28;;;7.20;99.90;;;;;;4995418;28;20661;-84
2021/01/08 10:02:06;;;;;;;5.10;4.35;;;7.30;99.90;;;;;;4979765;28;20201;-87
2021/01/08 10:04:33;;;;;;;7.38;4.97;;;7.30;99.90;;;;;;4976141;28;20225;-87
2021/01/08 10:07:01;;;;;;;5.07;4.57;;;7.30;99.90;;;;;;4975905;28;20202;-85
2021/01/08 10:09:43;;;;;;;5.05;4.30;;;7.30;99.90;;;;;;4975887;28;20252;-83
2021/01/08 10:12:11;;;;;;;5.00;4.50;;;7.30;99.90;;;;;;4975517;28;20206;-84
2021/01/08 10:14:37;;;;;;;4.97;4.47;;;7.40;99.90;;;;;;4975754;28;20205;-88
2021/01/08 10:17:11;;;;;;;5.63;4.78;;;7.50;99.90;;;;;;4975836;28;20212;-87
2021/01/08 10:19:39;;;;;;;5.30;4.70;;;7.50;99.90;;;;;;4975821;28;20229;-86
2021/01/08 10:22:05;;;;;;;4.32;3.90;;;7.50;99.90;;;;;;4975415;28;20713;-82
2021/01/08 10:24:32;;;;;;;4.68;4.15;;;7.50;99.90;;;;;;4975643;28;20228;-82
2021/01/08 10:26:58;;;;;;;4.35;3.95;;;7.60;99.90;;;;;;4975524;28;20202;-84
2021/01/08 10:29:32;;;;;;;4.85;4.20;;;7.60;99.90;;;;;;4975804;28;20198;-83
2021/01/08 10:32:05;;;;;;;5.57;4.20;;;7.60;99.90;;;;;;4975077;28;20207;-82
2021/01/08 10:34:36;;;;;;;4.65;4.18;;;7.70;99.90;;;;;;4975299;28;20676;-82
2021/01/08 10:37:02;;;;;;;4.50;4.10;;;7.60;99.90;;;;;;4975541;28;20198;-82
2021/01/08 10:39:29;;;;;;;6.90;4.82;;;7.60;99.90;;;;;;4974943;28;20202;-83
2021/01/08 10:41:55;;;;;;;5.10;4.60;;;7.70;99.90;;;;;;4974808;28;20729;-83
2021/01/08 10:44:21;;;;;;;5.15;3.75;;;7.70;99.90;;;;;;4975184;28;20656;-84
2021/01/08 10:46:48;;;;;;;10.38;5.78;;;7.70;99.90;;;;;;4975164;28;20727;-87
2021/01/08 10:49:15;;;;;;;6.35;4.22;;;7.80;99.90;;;;;;4975561;28;20194;-86
2021/01/08 10:51:41;;;;;;;5.80;5.22;;;7.80;99.90;;;;;;4974597;28;20221;-84
2021/01/08 10:54:14;;;;;;;5.10;4.60;;;7.70;99.90;;;;;;4977484;28;20189;-82
2021/01/08 10:56:40;;;;;;;5.13;4.50;;;7.80;99.90;;;;;;4986179;28;20197;-85
2021/01/08 10:59:06;;;;;;;4.53;4.03;;;7.80;99.90;;;;;;4974893;28;20202;-84
2021/01/08 11:01:39;;;;;;;5.25;4.57;;;7.80;99.90;;;;;;4985790;28;20660;-84
2021/01/08 11:04:06;;;;;;;5.75;4.57;;;7.70;99.90;;;;;;4994161;28;20229;-84
2021/01/08 11:06:33;;;;;;;4.40;4.00;;;7.80;99.90;;;;;;4994506;28;20192;-85
2021/01/08 11:08:59;;;;;;;4.55;4.10;;;7.90;99.90;;;;;;4994302;28;20203;-84
2021/01/08 11:11:25;;;;;;;10.07;4.97;;;7.80;99.90;;;;;;4993828;28;20213;-82
2021/01/08 11:13:52;;;;;;;5.40;4.50;;;7.90;99.90;;;;;;4993968;28;20201;-82
2021/01/08 11:16:18;;;;;;;4.97;4.25;;;7.90;99.90;;;;;;4994298;28;20220;-82
2021/01/08 11:18:45;;;;;;;5.03;4.53;;;7.90;99.90;;;;;;4993931;28;20197;-82
2021/01/08 11:21:17;;;;;;;4.90;4.40;;;7.90;99.90;;;;;;4993853;28;20220;-82
2021/01/08 11:23:43;;;;;;;9.35;4.50;;;7.90;99.90;;;;;;4993788;28;20224;-83
2021/01/08 11:26:09;;;;;;;4.38;3.97;;;7.90;99.90;;;;;;4993909;28;20235;-83
2021/01/08 11:28:35;;;;;;;5.25;4.63;;;7.90;99.90;;;;;;4993910;28;20212;-84
2021/01/08 11:31:02;;;;;;;4.55;3.75;;;7.70;99.90;;;;;;4985414;28;20194;-80
2021/01/08 11:33:28;;;;;;;4.85;4.35;;;7.70;99.90;;;;;;4973684;28;20205;-82
2021/01/08 11:35:54;;;;;;;4.70;4.30;;;7.80;99.90;;;;;;4980682;28;20201;-84
2021/01/08 11:38:21;;;;;;;4.75;4.35;;;7.80;99.90;;;;;;4987116;28;20207;-83
2021/01/08 11:40:47;;;;;;;4.82;4.32;;;7.90;99.90;;;;;;4993265;28;20200;-81
2021/01/08 11:43:14;;;;;;;4.47;4.00;;;7.90;99.90;;;;;;4992993;28;20229;-80
2021/01/08 11:45:40;;;;;;;4.60;4.10;;;8.00;99.90;;;;;;4993178;28;20236;-83
2021/01/08 11:48:07;;;;;;;4.50;4.03;;;8.00;99.90;;;;;;4993364;28;20197;-84
2021/01/08 11:50:34;;;;;;;5.88;4.40;;;8.00;99.90;;;;;;4988311;28;20221;-84
2021/01/08 11:53:00;;;;;;;6.05;4.53;;;8.10;99.90;;;;;;4985395;28;20208;-83
2021/01/08 11:55:27;;;;;;;4.35;3.95;;;8.00;99.90;;;;;;4973872;28;20198;-83
2021/01/08 11:57:53;;;;;;;4.85;4.07;;;8.00;99.90;;;;;;4973248;28;20197;-84
2021/01/08 12:00:20;;;;;;;4.97;4.47;;;8.00;99.90;;;;;;4973851;28;20576;-82
2021/01/08 12:02:46;;;;;;;3.78;3.45;;;8.10;99.90;;;;;;4973582;28;20724;-83
2021/01/08 12:05:13;;;;;;;4.00;3.70;;;8.00;99.90;;;;;;4976558;28;20599;-82
2021/01/08 12:07:39;;;;;;;4.93;3.40;;;8.00;99.90;;;;;;4977995;28;20205;-84
2021/01/08 12:10:07;;;;;;;4.00;3.63;;;8.00;99.90;;;;;;4980917;28;20593;-82
2021/01/08 12:12:34;;;;;;;4.72;4.22;;;8.00;99.90;;;;;;4987570;28;20262;-82
2021/01/08 12:15:01;;;;;;;4.57;3.75;;;8.00;99.90;;;;;;4997887;28;20200;-83
2021/01/08 12:17:28;;;;;;;3.97;3.58;;;8.00;99.90;;;;;;4997793;28;20201;-86
2021/01/08 12:19:54;;;;;;;3.78;3.47;;;8.00;99.90;;;;;;4997914;28;20196;-87
2021/01/08 12:22:20;;;;;;;4.35;3.92;;;7.90;99.90;;;;;;4997698;28;20220;-87
2021/01/08 12:24:47;;;;;;;5.15;4.65;;;7.90;99.90;;;;;;4997344;28;20228;-79
2021/01/08 12:27:15;;;;;;;6.65;4.88;;;7.80;99.90;;;;;;4996154;28;20201;-79
2021/01/08 12:29:42;;;;;;;4.18;3.85;;;7.80;99.90;;;;;;4996968;28;20201;-83
2021/01/08 12:32:08;;;;;;;4.40;4.03;;;7.80;99.90;;;;;;4997350;28;20215;-87
2021/01/08 12:34:35;;;;;;;4.05;3.70;;;7.90;99.90;;;;;;4997335;28;20197;-87
2021/01/08 12:37:04;;;;;;;7.10;5.30;;;7.80;99.90;;;;;;4997463;28;20532;-87
2021/01/08 12:39:31;;;;;;;4.97;4.32;;;7.80;99.90;;;;;;4997605;28;20197;-87
2021/01/08 12:41:57;;;;;;;5.93;4.05;;;7.80;99.90;;;;;;4997403;28;20197;-87
2021/01/08 12:44:24;;;;;;;4.68;3.60;;;7.70;99.90;;;;;;4997217;28;20250;-80
2021/01/08 12:46:51;;;;;;;4.28;3.50;;;7.60;99.90;;;;;;4996608;28;20236;-80
2021/01/08 12:49:17;;;;;;;4.40;3.78;;;7.50;99.90;;;;;;4996870;28;20211;-80
2021/01/08 12:51:49;;;;;;;4.93;3.75;;;7.50;99.90;;;;;;4996808;28;20274;-80
2021/01/08 12:54:15;;;;;;;4.22;3.30;;;7.50;99.90;;;;;;4996907;28;20197;-80
2021/01/08 12:56:42;;;;;;;5.50;4.13;;;7.60;99.90;;;;;;4996864;28;20203;-80
2021/01/08 12:59:08;;;;;;;5.88;3.55;;;7.60;99.90;;;;;;4996752;28;20219;-80
2021/01/08 13:01:34;;;;;;;7.38;3.72;;;7.60;99.90;;;;;;4996695;28;20220;-80